sensor_id;sensor_type;location;lat;lon;timestamp;pressure;altitude;pressure_sealevel;temperature;humidity
63285;BME280;49409;55.708;37.522;2022-12-16T00:02:00;98961.84;;;3.33;49.60
63285;BME280;49409;55.708;37.522;2022-12-16T00:04:26;98979.81;;;3.49;49.36
63285;BME280;49409;55.708;37.522;2022-12-16T00:06:51;98958.72;;;3.31;49.32
63285;BME280;49409;55.708;37.522;2022-12-16T00:09:17;98972.06;;;3.51;49.42
63285;BME280;49409;55.708;37.522;2022-12-16T00:11:42;98973.28;;;3.61;49.11
63285;BME280;49409;55.708;37.522;2022-12-16T00:14:08;98942.81;;;3.37;49.35
63285;BME280;49409;55.708;37.522;2022-12-16T00:16:33;98961.22;;;3.58;49.23
63285;BME280;49409;55.708;37.522;2022-12-16T00:18:59;98958.53;;;3.65;48.67
63285;BME280;49409;55.708;37.522;2022-12-16T00:21:24;98945.72;;;3.62;49.65
63285;BME280;49409;55.708;37.522;2022-12-16T00:23:56;98930.84;;;3.45;49.51
63285;BME280;49409;55.708;37.522;2022-12-16T00:26:22;98929.28;;;3.44;49.28
63285;BME280;49409;55.708;37.522;2022-12-16T00:28:48;98933.97;;;3.51;49.10
63285;BME280;49409;55.708;37.522;2022-12-16T00:31:14;98918.00;;;3.42;49.48
63285;BME280;49409;55.708;37.522;2022-12-16T00:33:39;98911.38;;;3.43;49.16
63285;BME280;49409;55.708;37.522;2022-12-16T00:36:06;98947.97;;;3.53;49.83
63285;BME280;49409;55.708;37.522;2022-12-16T00:38:32;98930.13;;;3.59;50.03
63285;BME280;49409;55.708;37.522;2022-12-16T00:40:57;98916.47;;;3.45;49.30
63285;BME280;49409;55.708;37.522;2022-12-16T00:43:23;98916.88;;;3.50;49.32
63285;BME280;49409;55.708;37.522;2022-12-16T00:45:48;98940.25;;;3.62;49.31
63285;BME280;49409;55.708;37.522;2022-12-16T00:48:14;98913.84;;;3.63;48.71
63285;BME280;49409;55.708;37.522;2022-12-16T00:50:40;98917.69;;;3.54;49.47
63285;BME280;49409;55.708;37.522;2022-12-16T00:53:06;98920.75;;;3.46;49.89
63285;BME280;49409;55.708;37.522;2022-12-16T00:55:31;98942.59;;;3.67;49.67
63285;BME280;49409;55.708;37.522;2022-12-16T00:57:57;98944.94;;;3.62;49.81
63285;BME280;49409;55.708;37.522;2022-12-16T01:00:23;98946.16;;;3.71;50.07
63285;BME280;49409;55.708;37.522;2022-12-16T01:02:50;98934.09;;;3.72;49.76
63285;BME280;49409;55.708;37.522;2022-12-16T01:05:18;98929.34;;;3.55;50.00
63285;BME280;49409;55.708;37.522;2022-12-16T01:07:45;98926.19;;;3.49;50.04
63285;BME280;49409;55.708;37.522;2022-12-16T01:10:11;98920.78;;;3.53;49.86
63285;BME280;49409;55.708;37.522;2022-12-16T01:12:37;98909.00;;;3.31;50.02
63285;BME280;49409;55.708;37.522;2022-12-16T01:15:05;98949.63;;;3.68;49.31
63285;BME280;49409;55.708;37.522;2022-12-16T01:17:32;98969.44;;;3.69;49.48
63285;BME280;49409;55.708;37.522;2022-12-16T01:19:59;98953.50;;;3.71;49.93
63285;BME280;49409;55.708;37.522;2022-12-16T01:22:25;98943.81;;;3.70;49.90
63285;BME280;49409;55.708;37.522;2022-12-16T01:24:53;98936.38;;;3.63;50.20
63285;BME280;49409;55.708;37.522;2022-12-16T01:27:19;98944.66;;;3.88;49.77
63285;BME280;49409;55.708;37.522;2022-12-16T01:29:44;98957.13;;;3.89;49.32
63285;BME280;49409;55.708;37.522;2022-12-16T01:32:13;98934.44;;;3.67;49.18
63285;BME280;49409;55.708;37.522;2022-12-16T01:34:39;98925.47;;;3.63;49.90
63285;BME280;49409;55.708;37.522;2022-12-16T01:37:05;98925.09;;;3.61;50.35
63285;BME280;49409;55.708;37.522;2022-12-16T01:39:30;98939.47;;;3.58;50.50
63285;BME280;49409;55.708;37.522;2022-12-16T01:41:56;98947.25;;;3.63;50.86
63285;BME280;49409;55.708;37.522;2022-12-16T01:44:24;98925.47;;;3.56;50.28
63285;BME280;49409;55.708;37.522;2022-12-16T01:47:02;98958.22;;;3.77;50.45
63285;BME280;49409;55.708;37.522;2022-12-16T01:49:39;98944.19;;;3.68;50.70
63285;BME280;49409;55.708;37.522;2022-12-16T01:52:10;98952.78;;;3.77;50.43
63285;BME280;49409;55.708;37.522;2022-12-16T01:54:44;98949.69;;;3.83;50.58
63285;BME280;49409;55.708;37.522;2022-12-16T01:57:12;98931.03;;;3.81;50.31
63285;BME280;49409;55.708;37.522;2022-12-16T01:59:43;98932.53;;;3.71;49.60
63285;BME280;49409;55.708;37.522;2022-12-16T02:02:11;98962.06;;;3.73;50.41
63285;BME280;49409;55.708;37.522;2022-12-16T02:04:38;98934.03;;;3.65;50.06
63285;BME280;49409;55.708;37.522;2022-12-16T02:07:23;98938.34;;;3.66;51.12
63285;BME280;49409;55.708;37.522;2022-12-16T02:09:49;98963.72;;;3.88;50.28
63285;BME280;49409;55.708;37.522;2022-12-16T02:12:38;98967.66;;;3.98;50.62
63285;BME280;49409;55.708;37.522;2022-12-16T02:15:27;98954.41;;;3.93;49.65
63285;BME280;49409;55.708;37.522;2022-12-16T02:18:04;98959.84;;;3.96;50.61
63285;BME280;49409;55.708;37.522;2022-12-16T02:31:47;98974.75;;;4.28;49.79
63285;BME280;49409;55.708;37.522;2022-12-16T02:35:00;98978.66;;;4.30;49.83
63285;BME280;49409;55.708;37.522;2022-12-16T02:37:59;98972.44;;;4.23;50.41
63285;BME280;49409;55.708;37.522;2022-12-16T02:40:43;98978.66;;;4.23;50.38
63285;BME280;49409;55.708;37.522;2022-12-16T02:43:17;98943.50;;;3.89;50.79
63285;BME280;49409;55.708;37.522;2022-12-16T02:45:47;98970.72;;;3.93;50.41
63285;BME280;49409;55.708;37.522;2022-12-16T02:48:13;98961.06;;;3.99;50.84
63285;BME280;49409;55.708;37.522;2022-12-16T02:50:41;98965.72;;;4.02;51.05
63285;BME280;49409;55.708;37.522;2022-12-16T02:53:08;98982.84;;;4.06;51.16
63285;BME280;49409;55.708;37.522;2022-12-16T03:01:41;98957.59;;;4.16;50.91
63285;BME280;49409;55.708;37.522;2022-12-16T03:06:55;98959.97;;;4.22;50.10
63285;BME280;49409;55.708;37.522;2022-12-16T03:09:25;98977.13;;;4.29;50.84
63285;BME280;49409;55.708;37.522;2022-12-16T03:11:54;98961.50;;;4.15;50.11
63285;BME280;49409;55.708;37.522;2022-12-16T03:14:24;98981.78;;;4.36;50.55
63285;BME280;49409;55.708;37.522;2022-12-16T03:16:51;98975.56;;;4.35;50.61
63285;BME280;49409;55.708;37.522;2022-12-16T03:19:18;98947.47;;;4.06;50.47
63285;BME280;49409;55.708;37.522;2022-12-16T03:22:05;98988.84;;;4.51;50.51
63285;BME280;49409;55.708;37.522;2022-12-16T03:24:32;98990.00;;;4.43;50.56
63285;BME280;49409;55.708;37.522;2022-12-16T03:29:57;98989.25;;;4.53;50.91
63285;BME280;49409;55.708;37.522;2022-12-16T03:32:28;98981.78;;;4.32;50.74
63285;BME280;49409;55.708;37.522;2022-12-16T03:35:13;98991.94;;;4.50;50.42
63285;BME280;49409;55.708;37.522;2022-12-16T03:37:42;99001.72;;;4.54;50.13
63285;BME280;49409;55.708;37.522;2022-12-16T03:40:10;99018.06;;;4.54;50.55
63285;BME280;49409;55.708;37.522;2022-12-16T03:42:38;98990.72;;;4.29;50.51
63285;BME280;49409;55.708;37.522;2022-12-16T03:45:05;99014.53;;;4.47;50.34
63285;BME280;49409;55.708;37.522;2022-12-16T03:47:32;99013.34;;;4.44;50.78
63285;BME280;49409;55.708;37.522;2022-12-16T03:49:58;98999.72;;;4.37;50.36
63285;BME280;49409;55.708;37.522;2022-12-16T03:52:23;99000.47;;;4.37;50.28
63285;BME280;49409;55.708;37.522;2022-12-16T03:54:49;99022.31;;;4.48;50.96
63285;BME280;49409;55.708;37.522;2022-12-16T03:57:14;99020.00;;;4.50;50.88
63285;BME280;49409;55.708;37.522;2022-12-16T03:59:40;99010.25;;;4.49;50.90
63285;BME280;49409;55.708;37.522;2022-12-16T04:02:05;99030.16;;;4.64;50.58
63285;BME280;49409;55.708;37.522;2022-12-16T04:04:31;99032.50;;;4.73;50.13
63285;BME280;49409;55.708;37.522;2022-12-16T04:06:56;99044.94;;;4.63;50.69
63285;BME280;49409;55.708;37.522;2022-12-16T04:09:40;99029.31;;;4.49;50.70
63285;BME280;49409;55.708;37.522;2022-12-16T04:12:07;99056.63;;;4.60;50.28
63285;BME280;49409;55.708;37.522;2022-12-16T04:14:52;99069.06;;;4.57;50.58
63285;BME280;49409;55.708;37.522;2022-12-16T04:17:35;99065.97;;;4.66;50.34
63285;BME280;49409;55.708;37.522;2022-12-16T04:20:21;99075.69;;;4.60;50.94
63285;BME280;49409;55.708;37.522;2022-12-16T04:23:09;99062.81;;;4.57;50.41
63285;BME280;49409;55.708;37.522;2022-12-16T04:25:54;99081.94;;;4.68;50.40
63285;BME280;49409;55.708;37.522;2022-12-16T04:28:19;99085.44;;;4.72;50.39
63285;BME280;49409;55.708;37.522;2022-12-16T04:30:44;99091.72;;;4.76;50.33
63285;BME280;49409;55.708;37.522;2022-12-16T04:33:11;99097.16;;;4.72;50.61
63285;BME280;49409;55.708;37.522;2022-12-16T04:35:56;99077.63;;;4.60;49.81
63285;BME280;49409;55.708;37.522;2022-12-16T04:38:40;99088.56;;;4.67;50.16
63285;BME280;49409;55.708;37.522;2022-12-16T04:41:24;99122.09;;;4.85;50.14
63285;BME280;49409;55.708;37.522;2022-12-16T04:44:08;99099.09;;;4.68;50.11
63285;BME280;49409;55.708;37.522;2022-12-16T04:46:52;99112.00;;;4.89;50.18
63285;BME280;49409;55.708;37.522;2022-12-16T04:49:36;99100.25;;;4.71;50.33
63285;BME280;49409;55.708;37.522;2022-12-16T04:52:19;99118.97;;;4.76;50.47
63285;BME280;49409;55.708;37.522;2022-12-16T04:55:04;99109.97;;;4.72;50.85
63285;BME280;49409;55.708;37.522;2022-12-16T04:57:53;99122.06;;;4.74;50.15
63285;BME280;49409;55.708;37.522;2022-12-16T05:00:38;99131.06;;;4.82;49.92
63285;BME280;49409;55.708;37.522;2022-12-16T05:03:22;99149.38;;;4.89;50.04
63285;BME280;49409;55.708;37.522;2022-12-16T05:06:06;99138.44;;;4.78;50.25
63285;BME280;49409;55.708;37.522;2022-12-16T05:08:50;99143.13;;;4.81;50.17
63285;BME280;49409;55.708;37.522;2022-12-16T05:11:34;99143.16;;;4.88;49.79
63285;BME280;49409;55.708;37.522;2022-12-16T05:14:18;99163.81;;;4.93;49.67
63285;BME280;49409;55.708;37.522;2022-12-16T05:17:02;99139.94;;;4.72;50.39
63285;BME280;49409;55.708;37.522;2022-12-16T05:19:46;99181.28;;;4.81;50.49
63285;BME280;49409;55.708;37.522;2022-12-16T05:22:30;99175.84;;;4.85;50.27
63285;BME280;49409;55.708;37.522;2022-12-16T05:25:15;99162.56;;;4.72;50.32
63285;BME280;49409;55.708;37.522;2022-12-16T05:27:59;99190.69;;;4.91;50.03
63285;BME280;49409;55.708;37.522;2022-12-16T05:30:42;99187.56;;;4.92;50.01
63285;BME280;49409;55.708;37.522;2022-12-16T05:33:26;99179.72;;;4.80;50.77
63285;BME280;49409;55.708;37.522;2022-12-16T05:36:10;99174.22;;;4.69;50.19
63285;BME280;49409;55.708;37.522;2022-12-16T05:38:54;99187.91;;;4.84;49.90
63285;BME280;49409;55.708;37.522;2022-12-16T05:41:38;99210.19;;;4.96;50.07
63285;BME280;49409;55.708;37.522;2022-12-16T05:44:22;99218.75;;;4.99;49.69
63285;BME280;49409;55.708;37.522;2022-12-16T05:47:07;99203.13;;;4.85;49.84
63285;BME280;49409;55.708;37.522;2022-12-16T05:49:51;99230.81;;;4.97;49.61
63285;BME280;49409;55.708;37.522;2022-12-16T05:52:35;99229.56;;;4.81;50.17
63285;BME280;49409;55.708;37.522;2022-12-16T05:55:19;99237.28;;;4.68;50.59
63285;BME280;49409;55.708;37.522;2022-12-16T05:58:03;99243.41;;;4.50;51.02
63285;BME280;49409;55.708;37.522;2022-12-16T06:00:47;99264.09;;;4.59;49.99
63285;BME280;49409;55.708;37.522;2022-12-16T06:03:31;99249.94;;;4.39;50.62
63285;BME280;49409;55.708;37.522;2022-12-16T06:06:15;99283.97;;;4.63;50.21
63285;BME280;49409;55.708;37.522;2022-12-16T06:08:59;99258.53;;;4.41;50.65
63285;BME280;49409;55.708;37.522;2022-12-16T06:11:43;99281.44;;;4.36;51.20
63285;BME280;49409;55.708;37.522;2022-12-16T06:14:27;99250.94;;;3.75;52.62
63285;BME280;49409;55.708;37.522;2022-12-16T06:17:11;99296.31;;;4.01;53.34
63285;BME280;49409;55.708;37.522;2022-12-16T06:19:55;99304.25;;;3.80;53.64
63285;BME280;49409;55.708;37.522;2022-12-16T06:22:39;99292.13;;;3.73;53.21
63285;BME280;49409;55.708;37.522;2022-12-16T06:25:23;99298.72;;;3.72;52.44
63285;BME280;49409;55.708;37.522;2022-12-16T06:28:07;99326.31;;;3.71;53.20
63285;BME280;49409;55.708;37.522;2022-12-16T06:30:51;99310.19;;;3.55;53.42
63285;BME280;49409;55.708;37.522;2022-12-16T06:33:35;99346.88;;;3.68;52.51
63285;BME280;49409;55.708;37.522;2022-12-16T06:36:19;99348.28;;;3.55;52.98
63285;BME280;49409;55.708;37.522;2022-12-16T06:39:02;99377.53;;;3.65;51.68
63285;BME280;49409;55.708;37.522;2022-12-16T06:41:46;99353.53;;;3.41;53.22
63285;BME280;49409;55.708;37.522;2022-12-16T06:44:30;99359.09;;;3.48;52.23
63285;BME280;49409;55.708;37.522;2022-12-16T06:47:14;99377.88;;;3.60;52.78
63285;BME280;49409;55.708;37.522;2022-12-16T06:49:58;99384.00;;;3.53;51.91
63285;BME280;49409;55.708;37.522;2022-12-16T06:52:42;99397.06;;;3.71;52.12
63285;BME280;49409;55.708;37.522;2022-12-16T06:55:27;99375.34;;;3.44;51.49
63285;BME280;49409;55.708;37.522;2022-12-16T06:58:11;99394.63;;;3.62;51.02
63285;BME280;49409;55.708;37.522;2022-12-16T07:00:55;99426.72;;;3.80;51.26
63285;BME280;49409;55.708;37.522;2022-12-16T07:03:39;99411.59;;;3.52;51.13
63285;BME280;49409;55.708;37.522;2022-12-16T07:06:23;99433.25;;;3.71;51.25
63285;BME280;49409;55.708;37.522;2022-12-16T07:09:06;99441.34;;;3.68;50.58
63285;BME280;49409;55.708;37.522;2022-12-16T07:11:50;99447.28;;;3.77;50.44
63285;BME280;49409;55.708;37.522;2022-12-16T07:14:34;99438.16;;;3.62;50.54
63285;BME280;49409;55.708;37.522;2022-12-16T07:17:18;99449.47;;;3.64;50.82
63285;BME280;49409;55.708;37.522;2022-12-16T07:20:02;99473.63;;;3.69;50.63
63285;BME280;49409;55.708;37.522;2022-12-16T07:22:46;99479.56;;;3.78;50.18
63285;BME280;49409;55.708;37.522;2022-12-16T07:25:30;99483.53;;;3.85;49.33
63285;BME280;49409;55.708;37.522;2022-12-16T07:28:14;99486.50;;;3.72;49.36
63285;BME280;49409;55.708;37.522;2022-12-16T07:30:59;99487.81;;;3.55;49.86
63285;BME280;49409;55.708;37.522;2022-12-16T07:33:43;99495.69;;;3.37;49.89
63285;BME280;49409;55.708;37.522;2022-12-16T07:36:26;99494.81;;;3.30;50.13
63285;BME280;49409;55.708;37.522;2022-12-16T07:39:10;99498.84;;;3.40;49.43
63285;BME280;49409;55.708;37.522;2022-12-16T07:41:54;99527.19;;;3.65;48.81
63285;BME280;49409;55.708;37.522;2022-12-16T07:44:38;99532.44;;;3.51;49.37
63285;BME280;49409;55.708;37.522;2022-12-16T07:47:22;99515.69;;;3.49;48.98
63285;BME280;49409;55.708;37.522;2022-12-16T07:50:06;99515.78;;;3.29;49.17
63285;BME280;49409;55.708;37.522;2022-12-16T07:52:57;99554.31;;;3.58;49.49
63285;BME280;49409;55.708;37.522;2022-12-16T07:55:42;99555.03;;;3.55;48.43
63285;BME280;49409;55.708;37.522;2022-12-16T07:58:26;99558.25;;;3.61;49.12
63285;BME280;49409;55.708;37.522;2022-12-16T08:01:10;99555.88;;;3.59;48.44
63285;BME280;49409;55.708;37.522;2022-12-16T08:03:54;99559.53;;;3.44;48.60
63285;BME280;49409;55.708;37.522;2022-12-16T08:06:38;99577.47;;;3.48;48.72
63285;BME280;49409;55.708;37.522;2022-12-16T08:09:22;99517.47;;;3.14;48.79
63285;BME280;49409;55.708;37.522;2022-12-16T08:12:06;99584.97;;;3.55;48.89
63285;BME280;49409;55.708;37.522;2022-12-16T08:14:50;99584.03;;;3.70;48.22
63285;BME280;49409;55.708;37.522;2022-12-16T08:17:34;99562.78;;;3.53;47.38
63285;BME280;49409;55.708;37.522;2022-12-16T08:20:18;99577.53;;;3.52;47.97
63285;BME280;49409;55.708;37.522;2022-12-16T08:23:02;99594.25;;;3.77;47.79
63285;BME280;49409;55.708;37.522;2022-12-16T08:25:46;99580.19;;;3.71;48.19
63285;BME280;49409;55.708;37.522;2022-12-16T08:28:30;99613.13;;;3.89;47.80
63285;BME280;49409;55.708;37.522;2022-12-16T08:31:14;99585.72;;;3.78;47.04
63285;BME280;49409;55.708;37.522;2022-12-16T08:33:58;99623.63;;;3.91;47.30
63285;BME280;49409;55.708;37.522;2022-12-16T08:36:42;99598.19;;;3.80;46.35
63285;BME280;49409;55.708;37.522;2022-12-16T08:39:26;99605.34;;;3.65;46.97
63285;BME280;49409;55.708;37.522;2022-12-16T08:42:10;99614.88;;;3.55;46.22
63285;BME280;49409;55.708;37.522;2022-12-16T08:44:53;99622.47;;;3.42;47.46
63285;BME280;49409;55.708;37.522;2022-12-16T08:47:37;99638.72;;;3.38;46.75
63285;BME280;49409;55.708;37.522;2022-12-16T08:50:21;99626.25;;;3.14;47.38
63285;BME280;49409;55.708;37.522;2022-12-16T08:53:05;99635.09;;;3.11;46.63
63285;BME280;49409;55.708;37.522;2022-12-16T08:55:49;99630.19;;;2.97;47.30
63285;BME280;49409;55.708;37.522;2022-12-16T08:58:33;99656.28;;;3.22;47.03
63285;BME280;49409;55.708;37.522;2022-12-16T09:01:17;99670.66;;;3.22;47.52
63285;BME280;49409;55.708;37.522;2022-12-16T09:04:01;99673.16;;;3.31;47.02
63285;BME280;49409;55.708;37.522;2022-12-16T09:06:45;99677.09;;;3.14;47.16
63285;BME280;49409;55.708;37.522;2022-12-16T09:09:28;99688.13;;;3.21;46.37
63285;BME280;49409;55.708;37.522;2022-12-16T09:12:12;99697.00;;;3.18;46.43
63285;BME280;49409;55.708;37.522;2022-12-16T09:14:56;99674.84;;;3.16;46.68
63285;BME280;49409;55.708;37.522;2022-12-16T09:17:40;99686.75;;;3.31;46.18
63285;BME280;49409;55.708;37.522;2022-12-16T09:20:24;99693.38;;;3.10;45.74
63285;BME280;49409;55.708;37.522;2022-12-16T09:23:08;99681.56;;;3.03;46.00
63285;BME280;49409;55.708;37.522;2022-12-16T09:25:55;99689.47;;;3.11;46.11
63285;BME280;49409;55.708;37.522;2022-12-16T09:28:39;99705.84;;;3.54;45.63
63285;BME280;49409;55.708;37.522;2022-12-16T09:31:23;99681.75;;;3.13;46.71
63285;BME280;49409;55.708;37.522;2022-12-16T09:34:07;99680.47;;;3.27;46.21
63285;BME280;49409;55.708;37.522;2022-12-16T09:36:51;99693.97;;;3.43;45.65
63285;BME280;49409;55.708;37.522;2022-12-16T09:39:35;99704.84;;;3.43;45.73
63285;BME280;49409;55.708;37.522;2022-12-16T09:46:13;99675.09;;;3.11;46.11
63285;BME280;49409;55.708;37.522;2022-12-16T09:48:44;99737.75;;;3.57;45.72
63285;BME280;49409;55.708;37.522;2022-12-16T09:51:31;99704.25;;;3.53;45.55
63285;BME280;49409;55.708;37.522;2022-12-16T09:54:18;99741.97;;;3.74;45.87
63285;BME280;49409;55.708;37.522;2022-12-16T09:57:05;99725.31;;;3.56;45.67
63285;BME280;49409;55.708;37.522;2022-12-16T09:59:56;99759.50;;;3.57;46.25
63285;BME280;49409;55.708;37.522;2022-12-16T10:02:42;99756.19;;;3.67;45.57
63285;BME280;49409;55.708;37.522;2022-12-16T10:06:02;99767.41;;;3.62;46.28
63285;BME280;49409;55.708;37.522;2022-12-16T10:21:10;99776.78;;;3.26;45.96
63285;BME280;49409;55.708;37.522;2022-12-16T10:26:57;99774.06;;;3.45;45.57
63285;BME280;49409;55.708;37.522;2022-12-16T10:29:44;99767.28;;;3.16;45.84
63285;BME280;49409;55.708;37.522;2022-12-16T10:35:22;99808.88;;;3.36;45.87
63285;BME280;49409;55.708;37.522;2022-12-16T10:41:18;99808.94;;;3.20;46.14
63285;BME280;49409;55.708;37.522;2022-12-16T10:44:09;99832.31;;;3.25;45.91
63285;BME280;49409;55.708;37.522;2022-12-16T10:46:58;99832.31;;;3.25;46.44
63285;BME280;49409;55.708;37.522;2022-12-16T10:49:42;99816.91;;;3.13;46.00
63285;BME280;49409;55.708;37.522;2022-12-16T10:52:26;99837.78;;;3.44;45.77
63285;BME280;49409;55.708;37.522;2022-12-16T10:58:35;99848.81;;;3.90;45.47
63285;BME280;49409;55.708;37.522;2022-12-16T11:01:24;99854.97;;;3.87;44.70
63285;BME280;49409;55.708;37.522;2022-12-16T11:07:23;99855.28;;;3.27;45.14
63285;BME280;49409;55.708;37.522;2022-12-16T11:13:37;99880.97;;;3.46;44.97
63285;BME280;49409;55.708;37.522;2022-12-16T11:16:28;99881.38;;;3.28;44.46
63285;BME280;49409;55.708;37.522;2022-12-16T11:19:22;99884.63;;;3.18;44.49
63285;BME280;49409;55.708;37.522;2022-12-16T11:25:17;99883.19;;;2.89;44.89
63285;BME280;49409;55.708;37.522;2022-12-16T11:28:12;99922.19;;;3.12;44.27
63285;BME280;49409;55.708;37.522;2022-12-16T11:31:01;99898.06;;;2.95;44.67
63285;BME280;49409;55.708;37.522;2022-12-16T11:33:47;99927.53;;;3.09;44.55
63285;BME280;49409;55.708;37.522;2022-12-16T11:36:33;99929.88;;;3.26;44.30
63285;BME280;49409;55.708;37.522;2022-12-16T11:39:23;99942.97;;;3.05;44.33
63285;BME280;49409;55.708;37.522;2022-12-16T11:42:21;99931.66;;;3.03;44.21
63285;BME280;49409;55.708;37.522;2022-12-16T11:45:13;99954.69;;;3.25;44.41
63285;BME280;49409;55.708;37.522;2022-12-16T11:48:11;99964.19;;;2.99;43.69
63285;BME280;49409;55.708;37.522;2022-12-16T11:51:01;99964.44;;;3.10;44.71
63285;BME280;49409;55.708;37.522;2022-12-16T11:56:39;99952.44;;;2.95;43.46
63285;BME280;49409;55.708;37.522;2022-12-16T12:02:35;99986.81;;;3.03;44.48
63285;BME280;49409;55.708;37.522;2022-12-16T12:05:26;99963.22;;;2.91;44.12
63285;BME280;49409;55.708;37.522;2022-12-16T12:08:24;99960.06;;;2.89;43.76
63285;BME280;49409;55.708;37.522;2022-12-16T12:11:42;99962.00;;;2.73;44.71
63285;BME280;49409;55.708;37.522;2022-12-16T12:20:26;100001.28;;;2.91;44.00
63285;BME280;49409;55.708;37.522;2022-12-16T12:23:22;100006.72;;;2.91;43.62
63285;BME280;49409;55.708;37.522;2022-12-16T12:26:21;100012.03;;;2.72;43.87
63285;BME280;49409;55.708;37.522;2022-12-16T12:32:17;99993.03;;;2.44;43.77
63285;BME280;49409;55.708;37.522;2022-12-16T12:38:20;99987.81;;;2.23;44.50
63285;BME280;49409;55.708;37.522;2022-12-16T12:41:18;100023.66;;;2.28;44.17
63285;BME280;49409;55.708;37.522;2022-12-16T12:47:26;99992.16;;;2.11;44.22
63285;BME280;49409;55.708;37.522;2022-12-16T12:50:24;100028.09;;;2.49;43.91
63285;BME280;49409;55.708;37.522;2022-12-16T12:56:35;100029.78;;;2.53;44.38
63285;BME280;49409;55.708;37.522;2022-12-16T12:59:47;100039.25;;;2.60;43.81
63285;BME280;49409;55.708;37.522;2022-12-16T13:05:31;100049.13;;;2.24;44.38
63285;BME280;49409;55.708;37.522;2022-12-16T13:08:48;100046.91;;;2.13;45.22
63285;BME280;49409;55.708;37.522;2022-12-16T13:11:37;100030.97;;;2.00;44.74
63285;BME280;49409;55.708;37.522;2022-12-16T13:17:19;100061.81;;;2.20;45.05
63285;BME280;49409;55.708;37.522;2022-12-16T13:23:33;100072.94;;;2.43;45.03
63285;BME280;49409;55.708;37.522;2022-12-16T13:26:20;100080.06;;;2.47;44.72
63285;BME280;49409;55.708;37.522;2022-12-16T13:29:22;100078.44;;;2.58;44.50
63285;BME280;49409;55.708;37.522;2022-12-16T13:35:12;100050.69;;;2.25;44.63
63285;BME280;49409;55.708;37.522;2022-12-16T13:38:01;100089.34;;;2.46;44.82
63285;BME280;49409;55.708;37.522;2022-12-16T13:41:00;100072.53;;;2.28;45.03
63285;BME280;49409;55.708;37.522;2022-12-16T13:46:46;100108.81;;;2.48;45.03
63285;BME280;49409;55.708;37.522;2022-12-16T13:49:51;100111.28;;;2.53;44.50
63285;BME280;49409;55.708;37.522;2022-12-16T13:55:37;100115.97;;;2.28;45.46
63285;BME280;49409;55.708;37.522;2022-12-16T14:01:17;100130.53;;;2.48;45.15
63285;BME280;49409;55.708;37.522;2022-12-16T14:04:02;100128.69;;;2.65;44.63
63285;BME280;49409;55.708;37.522;2022-12-16T14:06:52;100127.78;;;2.61;45.08
63285;BME280;49409;55.708;37.522;2022-12-16T14:09:41;100119.19;;;2.58;44.78
63285;BME280;49409;55.708;37.522;2022-12-16T14:12:50;100128.19;;;2.75;45.46
63285;BME280;49409;55.708;37.522;2022-12-16T14:15:58;100147.13;;;3.00;45.12
63285;BME280;49409;55.708;37.522;2022-12-16T14:21:46;100119.94;;;3.00;45.23
63285;BME280;49409;55.708;37.522;2022-12-16T14:24:33;100144.09;;;3.17;45.01
63285;BME280;49409;55.708;37.522;2022-12-16T14:27:20;100146.22;;;3.24;44.86
63285;BME280;49409;55.708;37.522;2022-12-16T14:30:22;100099.13;;;2.91;44.74
63285;BME280;49409;55.708;37.522;2022-12-16T14:33:24;100130.84;;;3.15;45.14
63285;BME280;49409;55.708;37.522;2022-12-16T14:39:03;100149.75;;;3.24;44.67
63285;BME280;49409;55.708;37.522;2022-12-16T14:41:50;100150.88;;;3.23;44.61
63285;BME280;49409;55.708;37.522;2022-12-16T14:44:34;100148.84;;;3.20;44.77
63285;BME280;49409;55.708;37.522;2022-12-16T14:47:21;100151.72;;;3.11;45.06
63285;BME280;49409;55.708;37.522;2022-12-16T14:56:17;100174.75;;;3.30;44.91
63285;BME280;49409;55.708;37.522;2022-12-16T14:59:16;100160.91;;;3.07;45.19
63285;BME280;49409;55.708;37.522;2022-12-16T15:05:02;100166.78;;;3.53;44.56
63285;BME280;49409;55.708;37.522;2022-12-16T15:07:47;100151.81;;;3.15;44.63
63285;BME280;49409;55.708;37.522;2022-12-16T15:10:32;100146.63;;;3.10;44.57
63285;BME280;49409;55.708;37.522;2022-12-16T15:13:17;100180.09;;;3.26;45.17
63285;BME280;49409;55.708;37.522;2022-12-16T15:16:02;100161.91;;;3.14;44.91
63285;BME280;49409;55.708;37.522;2022-12-16T15:18:56;100189.16;;;3.30;44.56
63285;BME280;49409;55.708;37.522;2022-12-16T15:21:42;100196.59;;;3.33;44.71
63285;BME280;49409;55.708;37.522;2022-12-16T15:24:26;100174.44;;;3.19;44.76
63285;BME280;49409;55.708;37.522;2022-12-16T15:33:17;100143.16;;;2.97;44.51
63285;BME280;49409;55.708;37.522;2022-12-16T15:36:02;100188.00;;;3.31;44.66
63285;BME280;49409;55.708;37.522;2022-12-16T15:38:47;100187.31;;;3.34;44.18
63285;BME280;49409;55.708;37.522;2022-12-16T15:41:33;100194.31;;;3.35;44.90
63285;BME280;49409;55.708;37.522;2022-12-16T15:44:20;100202.22;;;3.41;44.87
63285;BME280;49409;55.708;37.522;2022-12-16T15:47:32;100189.75;;;3.40;45.48
63285;BME280;49409;55.708;37.522;2022-12-16T15:50:26;100196.78;;;3.41;44.99
63285;BME280;49409;55.708;37.522;2022-12-16T15:53:14;100196.09;;;3.44;44.77
63285;BME280;49409;55.708;37.522;2022-12-16T15:55:59;100191.84;;;3.30;44.93
63285;BME280;49409;55.708;37.522;2022-12-16T16:02:26;100205.59;;;3.50;44.92
63285;BME280;49409;55.708;37.522;2022-12-16T16:05:20;100203.00;;;3.41;44.44
63285;BME280;49409;55.708;37.522;2022-12-16T16:08:05;100206.78;;;3.36;44.85
63285;BME280;49409;55.708;37.522;2022-12-16T16:10:49;100215.72;;;3.37;44.77
63285;BME280;49409;55.708;37.522;2022-12-16T16:13:33;100191.41;;;3.28;44.23
63285;BME280;49409;55.708;37.522;2022-12-16T16:16:17;100200.63;;;3.40;44.85
63285;BME280;49409;55.708;37.522;2022-12-16T16:19:02;100199.06;;;3.38;44.74
63285;BME280;49409;55.708;37.522;2022-12-16T16:21:46;100199.59;;;3.28;44.85
63285;BME280;49409;55.708;37.522;2022-12-16T16:27:51;100184.44;;;3.15;44.48
63285;BME280;49409;55.708;37.522;2022-12-16T16:30:35;100140.84;;;2.83;45.49